createdAt,value
2022-12-19T00:03:22.725Z,49.33
2022-12-19T00:08:25.712Z,49.03
2022-12-19T00:13:31.153Z,50.73
2022-12-19T00:18:37.446Z,49.20
2022-12-19T00:23:40.337Z,48.77
2022-12-19T00:28:46.108Z,48.23
2022-12-19T00:33:50.754Z,47.63
2022-12-19T00:38:55.206Z,46.33
2022-12-19T00:44:02.337Z,46.90
2022-12-19T00:49:07.845Z,49.43
2022-12-19T00:54:11.829Z,48.00
2022-12-19T00:59:18.068Z,48.57
2022-12-19T01:04:30.381Z,50.40
2022-12-19T01:09:36.279Z,48.83
2022-12-19T01:14:40.590Z,44.77
2022-12-19T01:19:44.795Z,49.17
2022-12-19T01:24:48.734Z,49.73
2022-12-19T01:29:53.223Z,45.77
2022-12-19T01:34:56.231Z,48.80
2022-12-19T01:39:59.101Z,48.97
2022-12-19T01:45:33.846Z,49.23
2022-12-19T01:50:41.817Z,47.17
2022-12-19T01:55:57.034Z,45.23
2022-12-19T02:01:01.338Z,46.73
2022-12-19T02:06:06.395Z,47.63
2022-12-19T02:11:09.910Z,46.93
2022-12-19T02:16:25.968Z,49.17
2022-12-19T02:21:46.015Z,47.70
2022-12-19T02:27:07.372Z,46.43
2022-12-19T02:32:19.221Z,46.13
2022-12-19T02:37:32.347Z,47.70
2022-12-19T02:42:44.656Z,49.13
2022-12-19T02:47:49.911Z,47.83
2022-12-19T02:52:52.924Z,48.50
2022-12-19T02:58:37.617Z,48.30
2022-12-19T03:03:54.364Z,46.00
2022-12-19T03:09:04.316Z,48.23
2022-12-19T03:14:10.787Z,48.97
2022-12-19T03:19:17.175Z,47.73
2022-12-19T03:24:21.366Z,49.37
2022-12-19T03:29:29.423Z,45.37
2022-12-19T03:34:39.656Z,46.63
2022-12-19T03:39:46.877Z,48.60
2022-12-19T03:44:51.798Z,47.97
2022-12-19T03:49:56.306Z,48.57
2022-12-19T03:55:13.693Z,48.00
2022-12-19T04:00:18.733Z,46.73
2022-12-19T04:05:25.898Z,47.67
2022-12-19T04:10:29.975Z,48.27
2022-12-19T04:15:38.468Z,46.60
2022-12-19T04:20:50.595Z,48.37
2022-12-19T04:25:58.644Z,47.10
2022-12-19T04:31:02.437Z,46.33
2022-12-19T04:36:07.425Z,46.63
2022-12-19T04:41:10.686Z,46.33
2022-12-19T04:46:13.586Z,48.33
2022-12-19T04:51:18.455Z,48.87
2022-12-19T04:56:21.361Z,47.90
2022-12-19T05:01:30.304Z,48.40
2022-12-19T05:06:34.545Z,47.23
2022-12-19T05:11:37.665Z,46.50
2022-12-19T05:16:40.509Z,49.60
2022-12-19T05:21:45.399Z,50.23
2022-12-19T05:26:49.256Z,48.97
2022-12-19T05:31:52.104Z,51.97
2022-12-19T05:36:56.309Z,50.60
2022-12-19T05:41:59.632Z,71.55
2022-12-19T05:47:03.064Z,66.60
2022-12-19T05:52:07.326Z,55.27
2022-12-19T05:57:10.337Z,48.77
2022-12-19T06:02:13.336Z,51.77
2022-12-19T06:07:20.934Z,49.47
2022-12-19T06:12:24.581Z,45.07
2022-12-19T06:17:27.532Z,42.80
2022-12-19T06:22:31.738Z,45.97
2022-12-19T06:27:34.829Z,48.77
2022-12-19T06:32:38.477Z,46.87
2022-12-19T06:37:42.772Z,43.13
2022-12-19T06:42:48.312Z,40.23
2022-12-19T06:47:51.175Z,49.57
2022-12-19T06:52:55.385Z,48.67
2022-12-19T06:57:58.443Z,42.70
2022-12-19T07:03:05.192Z,46.37
2022-12-19T07:08:10.163Z,51.03
2022-12-19T07:13:13.023Z,44.43
2022-12-19T07:18:16.256Z,45.60
2022-12-19T07:23:23.058Z,44.27
2022-12-19T07:28:26.366Z,46.63
2022-12-19T07:33:29.241Z,44.67
2022-12-19T07:38:33.475Z,44.10
2022-12-19T07:43:36.357Z,48.47
2022-12-19T07:48:39.250Z,51.97
2022-12-19T07:53:43.468Z,47.73
2022-12-19T07:58:46.317Z,48.13
2022-12-19T08:03:49.188Z,47.00
2022-12-19T08:08:53.396Z,47.87
2022-12-19T08:13:56.440Z,46.80
2022-12-19T08:19:00.413Z,45.50
2022-12-19T08:24:04.953Z,45.33
2022-12-19T08:29:07.862Z,48.53
2022-12-19T08:34:10.701Z,47.20
2022-12-19T08:39:14.972Z,44.87
2022-12-19T08:44:17.855Z,42.57
2022-12-19T08:49:21.308Z,45.13
2022-12-19T08:54:27.080Z,46.13
2022-12-19T08:59:31.218Z,45.20
2022-12-19T09:05:59.607Z,47.57
2022-12-19T09:10:01.943Z,49.47
2022-12-19T09:15:05.405Z,48.43
2022-12-19T09:20:10.723Z,47.30
2022-12-19T09:25:15.119Z,43.40
2022-12-19T09:30:18.115Z,42.87
2022-12-19T09:35:24.462Z,45.93
2022-12-19T09:40:45.537Z,46.73
2022-12-19T09:45:58.767Z,44.90
2022-12-19T09:51:10.576Z,42.03
2022-12-19T09:56:16.915Z,38.80
2022-12-19T10:01:23.207Z,42.43
2022-12-19T10:07:20.569Z,42.37
2022-12-19T10:12:44.327Z,41.80
2022-12-19T10:17:38.937Z,42.30
2022-12-19T10:22:52.235Z,42.40
2022-12-19T10:28:01.641Z,41.53
2022-12-19T10:33:20.289Z,43.63
2022-12-19T10:38:30.005Z,43.43
2022-12-19T10:43:44.423Z,44.50
2022-12-19T10:48:49.445Z,45.33
2022-12-19T10:53:55.624Z,41.80
2022-12-19T10:59:01.333Z,43.07
2022-12-19T11:04:19.666Z,42.17
2022-12-19T11:09:30.764Z,41.67
2022-12-19T11:18:50.884Z,45.47
2022-12-19T11:29:44.238Z,42.63
2022-12-19T11:30:45.508Z,42.37
2022-12-19T11:36:33.190Z,40.73
2022-12-19T11:41:41.986Z,41.93
2022-12-19T11:46:50.635Z,40.47
2022-12-19T11:51:57.405Z,40.37
2022-12-19T11:57:00.709Z,40.43
2022-12-19T12:02:25.220Z,41.33
2022-12-19T12:08:54.354Z,41.07
2022-12-19T12:22:34.755Z,41.23
2022-12-19T12:31:00.803Z,41.47
2022-12-19T12:31:39.473Z,41.07
2022-12-19T12:31:41.876Z,42.70
2022-12-19T12:37:52.434Z,41.77
2022-12-19T12:41:10.604Z,40.70
2022-12-19T12:46:17.230Z,41.07
2022-12-19T12:51:22.653Z,42.38
2022-12-19T12:56:25.909Z,42.20
2022-12-19T13:01:35.462Z,42.22
2022-12-19T13:06:41.781Z,43.30
2022-12-19T13:12:06.366Z,42.10
2022-12-19T13:17:10.192Z,42.90
2022-12-19T13:22:41.291Z,50.63
2022-12-19T13:27:49.389Z,42.08
2022-12-19T13:33:10.145Z,43.87
2022-12-19T13:39:57.819Z,42.13
2022-12-19T13:43:49.925Z,41.60
2022-12-19T13:48:57.116Z,42.55
2022-12-19T13:54:01.305Z,42.72
2022-12-19T13:59:07.040Z,43.45
2022-12-19T14:04:13.319Z,46.42
2022-12-19T14:11:25.656Z,46.13
2022-12-19T14:15:12.909Z,43.28
2022-12-19T14:22:02.429Z,44.00
2022-12-19T14:28:14.981Z,43.33
2022-12-19T14:31:15.599Z,43.13
2022-12-19T14:36:26.194Z,43.88
2022-12-19T14:42:02.439Z,44.33
2022-12-19T14:54:10.729Z,46.72
2022-12-19T14:54:21.296Z,46.08
2022-12-19T14:58:53.971Z,43.33
2022-12-19T15:04:01.078Z,45.08
2022-12-19T15:10:59.577Z,43.55
2022-12-19T15:14:54.652Z,44.30
2022-12-19T15:20:01.345Z,43.97
2022-12-19T15:25:04.422Z,43.90
2022-12-19T15:30:15.988Z,45.57
2022-12-19T15:35:19.737Z,57.33
2022-12-19T15:40:22.645Z,47.27
2022-12-19T15:45:27.341Z,47.85
2022-12-19T15:50:32.244Z,46.88
2022-12-19T15:55:37.041Z,46.13
2022-12-19T16:00:43.848Z,45.53
2022-12-19T16:05:47.272Z,50.73
2022-12-19T16:11:01.142Z,49.90
2022-12-19T16:16:15.075Z,45.47
2022-12-19T16:21:23.592Z,44.43
2022-12-19T16:26:34.139Z,47.47
2022-12-19T16:31:38.396Z,46.80
2022-12-19T16:36:41.274Z,46.50
2022-12-19T16:41:45.057Z,68.30
2022-12-19T16:46:51.770Z,46.73
2022-12-19T16:51:54.708Z,45.00
2022-12-19T16:56:57.755Z,42.23
2022-12-19T17:02:03.290Z,42.70
2022-12-19T17:07:10.900Z,43.90
2022-12-19T17:12:18.929Z,43.70
2022-12-19T17:17:23.200Z,42.30
2022-12-19T17:22:26.144Z,44.90
2022-12-19T17:27:30.066Z,41.63
2022-12-19T17:32:34.452Z,42.57
2022-12-19T17:37:37.419Z,42.77
2022-12-19T17:42:40.346Z,39.87
2022-12-19T17:47:45.959Z,43.10
2022-12-19T17:52:49.705Z,43.47
2022-12-19T17:57:53.076Z,43.70
2022-12-19T18:02:57.924Z,45.87
2022-12-19T18:08:01.016Z,39.10
2022-12-19T18:13:05.499Z,38.97
2022-12-19T18:18:14.306Z,40.13
2022-12-19T18:23:19.149Z,40.00
2022-12-19T18:28:22.064Z,42.10
2022-12-19T18:33:26.465Z,40.73
2022-12-19T18:38:29.432Z,44.60
2022-12-19T18:43:32.717Z,40.17
2022-12-19T18:48:38.587Z,40.77
2022-12-19T18:53:41.681Z,39.05
2022-12-19T18:58:51.661Z,40.13
2022-12-19T19:03:59.155Z,41.73
2022-12-19T19:09:03.516Z,41.88
2022-12-19T19:14:25.324Z,41.35
2022-12-19T19:19:29.532Z,40.43
2022-12-19T19:24:32.384Z,39.80
2022-12-19T19:29:35.268Z,41.80
2022-12-19T19:34:41.572Z,45.77
2022-12-19T19:39:44.894Z,41.50
2022-12-19T19:44:47.746Z,41.57
2022-12-19T19:49:51.941Z,44.00
2022-12-19T19:54:54.988Z,43.03
2022-12-19T19:59:57.915Z,42.47
2022-12-19T20:05:02.135Z,42.25
2022-12-19T20:10:08.033Z,44.60
2022-12-19T20:15:17.018Z,44.07
2022-12-19T20:20:23.113Z,44.28
2022-12-19T20:25:25.982Z,44.33
2022-12-19T20:30:28.843Z,43.17
2022-12-19T20:35:33.114Z,43.00
2022-12-19T20:40:35.993Z,42.50
2022-12-19T20:45:38.882Z,41.73
2022-12-19T20:50:43.541Z,41.80
2022-12-19T20:55:57.633Z,43.60
2022-12-19T21:01:06.216Z,40.67
2022-12-19T21:06:12.488Z,42.33
2022-12-19T21:11:16.401Z,40.70
2022-12-19T21:16:21.558Z,40.40
2022-12-19T21:21:27.421Z,40.70
2022-12-19T21:26:30.389Z,41.10
2022-12-19T21:31:33.309Z,41.10
2022-12-19T21:36:38.513Z,39.17
2022-12-19T21:41:43.440Z,40.23
2022-12-19T21:46:46.368Z,39.17
2022-12-19T21:51:50.629Z,39.20
2022-12-19T21:56:53.502Z,38.27
2022-12-19T22:01:56.548Z,37.93
2022-12-19T22:07:00.813Z,37.80
2022-12-19T22:12:03.664Z,38.90
2022-12-19T22:17:06.532Z,38.63
2022-12-19T22:22:10.753Z,38.67
2022-12-19T22:27:13.608Z,41.53
2022-12-19T22:32:17.586Z,39.77
2022-12-19T22:37:21.878Z,39.27
2022-12-19T22:42:24.795Z,38.77
2022-12-19T22:47:27.679Z,39.87
2022-12-19T22:52:31.893Z,41.20
2022-12-19T22:57:35.025Z,43.43
2022-12-19T23:02:39.990Z,41.07
2022-12-19T23:07:45.311Z,38.17
2022-12-19T23:12:48.200Z,39.97
2022-12-19T23:17:51.093Z,38.67
2022-12-19T23:22:55.322Z,38.73
2022-12-19T23:27:58.559Z,37.90
2022-12-19T23:33:01.768Z,38.20
2022-12-19T23:38:05.980Z,37.00
2022-12-19T23:43:08.836Z,34.25
2022-12-19T23:48:11.699Z,37.53
2022-12-19T23:53:15.908Z,37.45
2022-12-19T23:58:24.155Z,38.53
